Time,TemperatureF,DewpointF,PressureIn,WindDirection,WindDirectionDegrees,WindSpeedMPH,WindSpeedGustMPH,Humidity,HourlyPrecipIn,Conditions,Clouds,dailyrainin,SoftwareType,DateUTC
2015-09-01 00:08:00,77.9,63.8,29.89,SW,225,3.2,-999.0,62,-99.99,,,0.00,Acu-Link.com,2015-09-01 04:08:00,
2015-09-01 00:24:00,77.5,63.9,29.88,SSW,202,2.2,-999.0,63,-99.99,,,0.00,Acu-Link.com,2015-09-01 04:24:00,
2015-09-01 00:39:00,77.2,64.1,29.89,SSW,202,1.1,-999.0,64,-99.99,,,0.00,Acu-Link.com,2015-09-01 04:39:00,
2015-09-01 00:54:00,76.8,64.1,29.90,SSW,202,1.1,-999.0,65,-99.99,,,0.00,Acu-Link.com,2015-09-01 04:54:00,
2015-09-01 01:09:00,76.5,64.3,29.89,South,180,2.7,-999.0,66,-99.99,,,0.00,Acu-Link.com,2015-09-01 05:09:00,
2015-09-01 01:24:00,76.3,64.5,29.90,WSW,247,2.2,-999.0,67,-99.99,,,0.00,Acu-Link.com,2015-09-01 05:24:00,
2015-09-01 01:39:00,75.9,64.1,29.90,WSW,247,2.2,-999.0,67,-99.99,,,0.00,Acu-Link.com,2015-09-01 05:39:00,
2015-09-01 01:54:00,75.4,64.1,29.89,WSW,247,0.0,-999.0,68,-99.99,,,0.00,Acu-Link.com,2015-09-01 05:54:00,
2015-09-01 02:10:00,75.2,64.3,29.89,WSW,247,0.0,-999.0,69,-99.99,,,0.00,Acu-Link.com,2015-09-01 06:10:00,
2015-09-01 02:25:00,74.5,63.6,29.90,WSW,247,0.0,-999.0,69,-99.99,,,0.00,Acu-Link.com,2015-09-01 06:25:00,
2015-09-01 02:40:00,74.1,64.1,29.90,WSW,247,0.0,-999.0,71,-99.99,,,0.00,Acu-Link.com,2015-09-01 06:40:00,
2015-09-01 02:55:00,73.8,64.2,29.90,WSW,247,0.0,-999.0,72,-99.99,,,0.00,Acu-Link.com,2015-09-01 06:55:00,
2015-09-01 03:10:00,73.2,64.0,29.90,WSW,247,0.0,-999.0,73,-99.99,,,0.00,Acu-Link.com,2015-09-01 07:10:00,
2015-09-01 03:25:00,72.7,63.9,29.90,WSW,247,0.0,-999.0,74,-99.99,,,0.00,Acu-Link.com,2015-09-01 07:25:00,
2015-09-01 03:40:00,72.3,65.0,29.90,WSW,247,0.0,-999.0,78,-99.99,,,0.00,Acu-Link.com,2015-09-01 07:40:00,
2015-09-01 03:55:00,71.8,65.6,29.90,WSW,247,0.0,-999.0,81,-99.99,,,0.00,Acu-Link.com,2015-09-01 07:55:00,
2015-09-01 04:11:00,71.4,66.0,29.90,WSW,247,0.0,-999.0,83,-99.99,,,0.00,Acu-Link.com,2015-09-01 08:11:00,
2015-09-01 04:26:00,70.7,65.6,29.90,WSW,247,0.0,-999.0,84,-99.99,,,0.00,Acu-Link.com,2015-09-01 08:26:00,
2015-09-01 04:41:00,70.3,65.2,29.90,WSW,247,0.0,-999.0,84,-99.99,,,0.00,Acu-Link.com,2015-09-01 08:41:00,
2015-09-01 04:57:00,70.3,66.9,29.90,WSW,247,0.0,-999.0,89,-99.99,,,0.00,Acu-Link.com,2015-09-01 08:57:00,
2015-09-01 05:12:00,70.3,67.9,29.89,WSW,247,0.0,-999.0,92,-99.99,,,0.00,Acu-Link.com,2015-09-01 09:12:00,
2015-09-01 05:27:00,69.6,67.2,29.90,WSW,247,0.0,-999.0,92,-99.99,,,0.00,Acu-Link.com,2015-09-01 09:27:00,
2015-09-01 05:42:00,70.0,68.2,29.90,WSW,247,0.0,-999.0,94,-99.99,,,0.00,Acu-Link.com,2015-09-01 09:42:00,
2015-09-01 05:57:00,68.9,67.1,29.91,WSW,247,0.0,-999.0,94,-99.99,,,0.00,Acu-Link.com,2015-09-01 09:57:00,
2015-09-01 06:12:00,69.3,67.8,29.91,WSW,247,0.0,-999.0,95,-99.99,,,0.00,Acu-Link.com,2015-09-01 10:12:00,
2015-09-01 06:27:00,68.4,66.9,29.91,WSW,247,0.0,-999.0,95,-99.99,,,0.00,Acu-Link.com,2015-09-01 10:27:00,
2015-09-01 06:43:00,68.2,66.7,29.92,WSW,247,0.0,-999.0,95,-99.99,,,0.00,Acu-Link.com,2015-09-01 10:43:00,
2015-09-01 06:58:00,68.4,66.9,29.92,WSW,247,0.0,-999.0,95,-99.99,,,0.00,Acu-Link.com,2015-09-01 10:58:00,
2015-09-01 07:13:00,69.3,67.8,29.93,WSW,247,0.0,-999.0,95,-99.99,,,0.00,Acu-Link.com,2015-09-01 11:13:00,
2015-09-01 07:28:00,71.2,69.4,29.93,WSW,247,0.0,-999.0,94,-99.99,,,0.00,Acu-Link.com,2015-09-01 11:28:00,
2015-09-01 07:44:00,73.4,70.3,29.92,WSW,247,0.0,-999.0,90,-99.99,,,0.00,Acu-Link.com,2015-09-01 11:44:00,
2015-09-01 07:59:00,77.0,70.3,29.93,WSW,247,1.7,-999.0,80,-99.99,,,0.00,Acu-Link.com,2015-09-01 11:59:00,
2015-09-01 08:14:00,79.7,70.3,29.93,East,90,1.7,-999.0,73,-99.99,,,0.00,Acu-Link.com,2015-09-01 12:14:00,
2015-09-01 08:29:00,83.3,71.2,29.93,East,90,2.2,-999.0,67,-99.99,,,0.00,Acu-Link.com,2015-09-01 12:29:00,
2015-09-01 08:44:00,82.9,69.4,29.94,ENE,67,2.7,-999.0,64,-99.99,,,0.00,Acu-Link.com,2015-09-01 12:44:00,